sensor_id;sensor_type;location;lat;lon;timestamp;P1;durP1;ratioP1;P2;durP2;ratioP2
6864;SDS011;3471;49.678;8.388;2023-07-29T00:01:20;3.47;;;2.50;;
6864;SDS011;3471;49.678;8.388;2023-07-29T00:03:46;2.50;;;2.30;;
6864;SDS011;3471;49.678;8.388;2023-07-29T00:06:11;10.00;;;2.75;;
6864;SDS011;3471;49.678;8.388;2023-07-29T00:08:37;3.78;;;2.55;;
6864;SDS011;3471;49.678;8.388;2023-07-29T00:11:02;3.47;;;2.70;;
6864;SDS011;3471;49.678;8.388;2023-07-29T00:13:28;2.80;;;2.60;;
6864;SDS011;3471;49.678;8.388;2023-07-29T00:15:54;7.45;;;5.35;;
6864;SDS011;3471;49.678;8.388;2023-07-29T00:18:21;6.65;;;6.05;;
6864;SDS011;3471;49.678;8.388;2023-07-29T00:20:47;4.72;;;4.18;;
6864;SDS011;3471;49.678;8.388;2023-07-29T00:23:13;4.72;;;4.03;;
6864;SDS011;3471;49.678;8.388;2023-07-29T00:25:38;8.05;;;5.07;;
6864;SDS011;3471;49.678;8.388;2023-07-29T00:28:04;4.75;;;4.30;;
6864;SDS011;3471;49.678;8.388;2023-07-29T00:30:29;4.38;;;3.97;;
6864;SDS011;3471;49.678;8.388;2023-07-29T00:32:55;6.43;;;3.58;;
6864;SDS011;3471;49.678;8.388;2023-07-29T00:35:21;6.50;;;5.80;;
6864;SDS011;3471;49.678;8.388;2023-07-29T00:37:46;4.80;;;4.40;;
6864;SDS011;3471;49.678;8.388;2023-07-29T00:40:15;5.15;;;3.65;;
6864;SDS011;3471;49.678;8.388;2023-07-29T00:42:46;5.27;;;4.50;;
6864;SDS011;3471;49.678;8.388;2023-07-29T00:45:12;7.53;;;3.73;;
6864;SDS011;3471;49.678;8.388;2023-07-29T00:47:38;4.82;;;4.07;;
6864;SDS011;3471;49.678;8.388;2023-07-29T00:50:04;7.10;;;4.15;;
6864;SDS011;3471;49.678;8.388;2023-07-29T00:52:34;7.17;;;4.70;;
6864;SDS011;3471;49.678;8.388;2023-07-29T00:55:00;4.90;;;3.85;;
6864;SDS011;3471;49.678;8.388;2023-07-29T00:57:25;4.25;;;3.85;;
6864;SDS011;3471;49.678;8.388;2023-07-29T00:59:53;4.45;;;4.00;;
6864;SDS011;3471;49.678;8.388;2023-07-29T01:02:19;4.85;;;4.20;;
6864;SDS011;3471;49.678;8.388;2023-07-29T01:04:45;9.60;;;3.90;;
6864;SDS011;3471;49.678;8.388;2023-07-29T01:15:32;4.60;;;4.20;;
6864;SDS011;3471;49.678;8.388;2023-07-29T01:18:17;3.50;;;3.20;;
6864;SDS011;3471;49.678;8.388;2023-07-29T01:20:47;5.03;;;4.30;;
6864;SDS011;3471;49.678;8.388;2023-07-29T01:23:14;12.32;;;4.25;;
6864;SDS011;3471;49.678;8.388;2023-07-29T01:25:41;6.35;;;4.00;;
6864;SDS011;3471;49.678;8.388;2023-07-29T01:28:06;4.20;;;3.70;;
6864;SDS011;3471;49.678;8.388;2023-07-29T01:30:37;3.40;;;3.00;;
6864;SDS011;3471;49.678;8.388;2023-07-29T01:33:30;7.10;;;4.80;;
6864;SDS011;3471;49.678;8.388;2023-07-29T01:36:07;6.38;;;4.35;;
6864;SDS011;3471;49.678;8.388;2023-07-29T01:38:44;4.60;;;3.80;;
6864;SDS011;3471;49.678;8.388;2023-07-29T01:41:12;5.90;;;4.15;;
6864;SDS011;3471;49.678;8.388;2023-07-29T01:43:39;3.92;;;3.60;;
6864;SDS011;3471;49.678;8.388;2023-07-29T01:46:11;4.60;;;3.50;;
6864;SDS011;3471;49.678;8.388;2023-07-29T01:48:38;5.10;;;3.42;;
6864;SDS011;3471;49.678;8.388;2023-07-29T01:51:04;3.40;;;3.10;;
6864;SDS011;3471;49.678;8.388;2023-07-29T01:53:30;7.63;;;3.60;;
6864;SDS011;3471;49.678;8.388;2023-07-29T01:55:56;3.37;;;3.00;;
6864;SDS011;3471;49.678;8.388;2023-07-29T01:58:22;3.80;;;3.10;;
6864;SDS011;3471;49.678;8.388;2023-07-29T02:00:48;3.10;;;2.67;;
6864;SDS011;3471;49.678;8.388;2023-07-29T02:03:13;8.52;;;2.70;;
6864;SDS011;3471;49.678;8.388;2023-07-29T02:05:39;3.03;;;2.63;;
6864;SDS011;3471;49.678;8.388;2023-07-29T02:08:05;4.85;;;2.55;;
6864;SDS011;3471;49.678;8.388;2023-07-29T02:10:31;6.83;;;3.50;;
6864;SDS011;3471;49.678;8.388;2023-07-29T02:12:56;2.70;;;2.10;;
6864;SDS011;3471;49.678;8.388;2023-07-29T02:15:22;4.00;;;2.30;;
6864;SDS011;3471;49.678;8.388;2023-07-29T02:17:49;7.60;;;3.00;;
6864;SDS011;3471;49.678;8.388;2023-07-29T02:20:16;2.70;;;2.50;;
6864;SDS011;3471;49.678;8.388;2023-07-29T02:22:42;11.25;;;2.60;;
6864;SDS011;3471;49.678;8.388;2023-07-29T02:25:08;5.70;;;2.10;;
6864;SDS011;3471;49.678;8.388;2023-07-29T02:27:35;4.85;;;2.97;;
6864;SDS011;3471;49.678;8.388;2023-07-29T02:30:00;2.45;;;2.03;;
6864;SDS011;3471;49.678;8.388;2023-07-29T02:32:27;2.22;;;1.80;;
6864;SDS011;3471;49.678;8.388;2023-07-29T02:34:53;3.40;;;2.33;;
6864;SDS011;3471;49.678;8.388;2023-07-29T02:37:18;2.58;;;1.80;;
6864;SDS011;3471;49.678;8.388;2023-07-29T02:39:45;2.20;;;2.00;;
6864;SDS011;3471;49.678;8.388;2023-07-29T02:42:10;3.17;;;2.70;;
6864;SDS011;3471;49.678;8.388;2023-07-29T02:44:36;2.42;;;2.22;;
6864;SDS011;3471;49.678;8.388;2023-07-29T02:47:01;2.87;;;2.57;;
6864;SDS011;3471;49.678;8.388;2023-07-29T02:49:27;5.60;;;2.42;;
6864;SDS011;3471;49.678;8.388;2023-07-29T02:51:53;2.97;;;1.77;;
6864;SDS011;3471;49.678;8.388;2023-07-29T02:54:18;2.47;;;2.13;;
6864;SDS011;3471;49.678;8.388;2023-07-29T02:56:44;2.47;;;2.27;;
6864;SDS011;3471;49.678;8.388;2023-07-29T02:59:09;3.00;;;2.10;;
6864;SDS011;3471;49.678;8.388;2023-07-29T03:01:35;2.80;;;2.60;;
6864;SDS011;3471;49.678;8.388;2023-07-29T03:04:01;3.23;;;2.03;;
6864;SDS011;3471;49.678;8.388;2023-07-29T03:06:27;1.90;;;1.67;;
6864;SDS011;3471;49.678;8.388;2023-07-29T03:08:52;5.83;;;2.10;;
6864;SDS011;3471;49.678;8.388;2023-07-29T03:11:18;6.40;;;2.37;;
6864;SDS011;3471;49.678;8.388;2023-07-29T03:13:43;2.50;;;2.30;;
6864;SDS011;3471;49.678;8.388;2023-07-29T03:16:11;5.17;;;2.40;;
6864;SDS011;3471;49.678;8.388;2023-07-29T03:18:38;2.53;;;2.33;;
6864;SDS011;3471;49.678;8.388;2023-07-29T03:21:03;2.63;;;2.43;;
6864;SDS011;3471;49.678;8.388;2023-07-29T03:23:30;2.17;;;1.90;;
6864;SDS011;3471;49.678;8.388;2023-07-29T03:25:56;2.92;;;2.45;;
6864;SDS011;3471;49.678;8.388;2023-07-29T03:28:24;2.60;;;2.10;;
6864;SDS011;3471;49.678;8.388;2023-07-29T03:30:59;2.10;;;1.90;;
6864;SDS011;3471;49.678;8.388;2023-07-29T03:33:25;3.10;;;2.00;;
6864;SDS011;3471;49.678;8.388;2023-07-29T03:35:51;2.60;;;2.00;;
6864;SDS011;3471;49.678;8.388;2023-07-29T03:38:17;2.30;;;1.90;;
6864;SDS011;3471;49.678;8.388;2023-07-29T03:40:43;4.60;;;2.50;;
6864;SDS011;3471;49.678;8.388;2023-07-29T03:43:09;3.95;;;1.85;;
6864;SDS011;3471;49.678;8.388;2023-07-29T03:45:35;3.00;;;2.60;;
6864;SDS011;3471;49.678;8.388;2023-07-29T03:48:01;4.20;;;2.95;;
6864;SDS011;3471;49.678;8.388;2023-07-29T03:50:28;3.40;;;2.00;;
6864;SDS011;3471;49.678;8.388;2023-07-29T03:52:54;3.60;;;2.67;;
6864;SDS011;3471;49.678;8.388;2023-07-29T03:55:20;4.20;;;2.90;;
6864;SDS011;3471;49.678;8.388;2023-07-29T03:57:46;2.70;;;2.50;;
6864;SDS011;3471;49.678;8.388;2023-07-29T04:00:12;2.42;;;1.83;;
6864;SDS011;3471;49.678;8.388;2023-07-29T04:02:38;2.20;;;2.00;;
6864;SDS011;3471;49.678;8.388;2023-07-29T04:05:04;2.90;;;2.60;;
6864;SDS011;3471;49.678;8.388;2023-07-29T04:07:31;3.72;;;2.65;;
6864;SDS011;3471;49.678;8.388;2023-07-29T04:09:56;9.38;;;2.33;;
6864;SDS011;3471;49.678;8.388;2023-07-29T04:12:23;4.60;;;2.67;;
6864;SDS011;3471;49.678;8.388;2023-07-29T04:14:48;3.20;;;2.80;;
6864;SDS011;3471;49.678;8.388;2023-07-29T04:17:14;4.95;;;3.35;;
6864;SDS011;3471;49.678;8.388;2023-07-29T04:19:40;3.90;;;2.35;;
6864;SDS011;3471;49.678;8.388;2023-07-29T04:22:05;6.20;;;2.70;;
6864;SDS011;3471;49.678;8.388;2023-07-29T04:24:31;4.20;;;3.00;;
6864;SDS011;3471;49.678;8.388;2023-07-29T04:26:57;5.00;;;2.80;;
6864;SDS011;3471;49.678;8.388;2023-07-29T04:29:23;3.20;;;2.50;;
6864;SDS011;3471;49.678;8.388;2023-07-29T04:31:49;2.05;;;1.85;;
6864;SDS011;3471;49.678;8.388;2023-07-29T04:34:15;6.70;;;2.60;;
6864;SDS011;3471;49.678;8.388;2023-07-29T04:36:42;6.20;;;2.00;;
6864;SDS011;3471;49.678;8.388;2023-07-29T04:39:07;2.40;;;2.20;;
6864;SDS011;3471;49.678;8.388;2023-07-29T04:41:34;3.67;;;2.17;;
6864;SDS011;3471;49.678;8.388;2023-07-29T04:43:59;2.00;;;1.80;;
6864;SDS011;3471;49.678;8.388;2023-07-29T04:46:25;8.10;;;2.15;;
6864;SDS011;3471;49.678;8.388;2023-07-29T04:48:51;5.70;;;2.60;;
6864;SDS011;3471;49.678;8.388;2023-07-29T04:51:16;2.20;;;1.95;;
6864;SDS011;3471;49.678;8.388;2023-07-29T04:53:42;2.30;;;2.10;;
6864;SDS011;3471;49.678;8.388;2023-07-29T04:56:07;3.30;;;2.40;;
6864;SDS011;3471;49.678;8.388;2023-07-29T04:58:33;2.35;;;2.15;;
6864;SDS011;3471;49.678;8.388;2023-07-29T05:01:00;8.05;;;2.13;;
6864;SDS011;3471;49.678;8.388;2023-07-29T05:03:27;7.13;;;2.58;;
6864;SDS011;3471;49.678;8.388;2023-07-29T05:05:52;3.53;;;1.97;;
6864;SDS011;3471;49.678;8.388;2023-07-29T05:08:20;4.70;;;2.22;;
6864;SDS011;3471;49.678;8.388;2023-07-29T05:10:49;3.60;;;2.80;;
6864;SDS011;3471;49.678;8.388;2023-07-29T05:13:16;2.50;;;2.30;;
6864;SDS011;3471;49.678;8.388;2023-07-29T05:15:41;2.80;;;2.08;;
6864;SDS011;3471;49.678;8.388;2023-07-29T05:18:07;4.10;;;2.90;;
6864;SDS011;3471;49.678;8.388;2023-07-29T05:20:32;3.03;;;1.83;;
6864;SDS011;3471;49.678;8.388;2023-07-29T05:22:58;3.97;;;2.83;;
6864;SDS011;3471;49.678;8.388;2023-07-29T05:25:24;2.97;;;2.37;;
6864;SDS011;3471;49.678;8.388;2023-07-29T05:27:49;3.73;;;2.77;;
6864;SDS011;3471;49.678;8.388;2023-07-29T05:30:15;8.70;;;3.30;;
6864;SDS011;3471;49.678;8.388;2023-07-29T05:32:40;4.00;;;2.30;;
6864;SDS011;3471;49.678;8.388;2023-07-29T05:35:06;3.30;;;2.87;;
6864;SDS011;3471;49.678;8.388;2023-07-29T05:37:32;2.60;;;2.07;;
6864;SDS011;3471;49.678;8.388;2023-07-29T05:39:58;3.50;;;2.47;;
6864;SDS011;3471;49.678;8.388;2023-07-29T05:42:24;2.55;;;2.10;;
6864;SDS011;3471;49.678;8.388;2023-07-29T05:44:49;3.00;;;2.70;;
6864;SDS011;3471;49.678;8.388;2023-07-29T05:47:15;5.50;;;2.92;;
6864;SDS011;3471;49.678;8.388;2023-07-29T05:49:40;3.60;;;2.83;;
6864;SDS011;3471;49.678;8.388;2023-07-29T05:52:06;2.85;;;2.17;;
6864;SDS011;3471;49.678;8.388;2023-07-29T05:54:32;5.75;;;3.70;;
6864;SDS011;3471;49.678;8.388;2023-07-29T05:56:58;3.50;;;3.20;;
6864;SDS011;3471;49.678;8.388;2023-07-29T05:59:23;3.60;;;3.30;;
6864;SDS011;3471;49.678;8.388;2023-07-29T06:01:49;4.70;;;2.40;;
6864;SDS011;3471;49.678;8.388;2023-07-29T06:04:15;2.37;;;2.17;;
6864;SDS011;3471;49.678;8.388;2023-07-29T06:06:40;3.30;;;3.00;;
6864;SDS011;3471;49.678;8.388;2023-07-29T06:09:06;2.95;;;2.67;;
6864;SDS011;3471;49.678;8.388;2023-07-29T06:11:31;5.15;;;3.28;;
6864;SDS011;3471;49.678;8.388;2023-07-29T06:13:57;4.10;;;3.40;;
6864;SDS011;3471;49.678;8.388;2023-07-29T06:16:23;3.65;;;2.63;;
6864;SDS011;3471;49.678;8.388;2023-07-29T06:18:48;2.70;;;2.50;;
6864;SDS011;3471;49.678;8.388;2023-07-29T06:21:14;3.40;;;2.72;;
6864;SDS011;3471;49.678;8.388;2023-07-29T06:23:42;6.00;;;2.67;;
6864;SDS011;3471;49.678;8.388;2023-07-29T06:26:08;2.50;;;2.30;;
6864;SDS011;3471;49.678;8.388;2023-07-29T06:28:34;4.38;;;2.60;;
6864;SDS011;3471;49.678;8.388;2023-07-29T06:30:59;3.08;;;2.78;;
6864;SDS011;3471;49.678;8.388;2023-07-29T06:33:25;5.57;;;2.67;;
6864;SDS011;3471;49.678;8.388;2023-07-29T06:35:51;2.00;;;1.80;;
6864;SDS011;3471;49.678;8.388;2023-07-29T06:38:16;3.03;;;2.35;;
6864;SDS011;3471;49.678;8.388;2023-07-29T06:40:46;2.47;;;2.13;;
6864;SDS011;3471;49.678;8.388;2023-07-29T06:43:15;4.40;;;2.40;;
6864;SDS011;3471;49.678;8.388;2023-07-29T06:45:41;4.65;;;2.22;;
6864;SDS011;3471;49.678;8.388;2023-07-29T06:48:06;2.80;;;2.50;;
6864;SDS011;3471;49.678;8.388;2023-07-29T06:50:32;4.93;;;2.33;;
6864;SDS011;3471;49.678;8.388;2023-07-29T06:52:57;4.90;;;2.80;;
6864;SDS011;3471;49.678;8.388;2023-07-29T06:55:23;3.47;;;1.92;;
6864;SDS011;3471;49.678;8.388;2023-07-29T06:57:49;4.20;;;3.47;;
6864;SDS011;3471;49.678;8.388;2023-07-29T07:00:14;5.20;;;3.10;;
6864;SDS011;3471;49.678;8.388;2023-07-29T07:02:40;4.63;;;3.80;;
6864;SDS011;3471;49.678;8.388;2023-07-29T07:05:06;5.22;;;1.95;;
6864;SDS011;3471;49.678;8.388;2023-07-29T07:07:32;8.73;;;3.27;;
6864;SDS011;3471;49.678;8.388;2023-07-29T07:09:57;2.30;;;1.87;;
6864;SDS011;3471;49.678;8.388;2023-07-29T07:12:23;7.47;;;2.43;;
6864;SDS011;3471;49.678;8.388;2023-07-29T07:14:49;3.53;;;2.40;;
6864;SDS011;3471;49.678;8.388;2023-07-29T07:17:14;3.93;;;2.80;;
6864;SDS011;3471;49.678;8.388;2023-07-29T07:19:40;5.97;;;5.37;;
6864;SDS011;3471;49.678;8.388;2023-07-29T07:22:06;2.88;;;2.38;;
6864;SDS011;3471;49.678;8.388;2023-07-29T07:24:31;5.00;;;2.40;;
6864;SDS011;3471;49.678;8.388;2023-07-29T07:26:57;4.70;;;2.77;;
6864;SDS011;3471;49.678;8.388;2023-07-29T07:29:23;3.70;;;2.45;;
6864;SDS011;3471;49.678;8.388;2023-07-29T07:31:52;2.77;;;2.33;;
6864;SDS011;3471;49.678;8.388;2023-07-29T07:34:22;3.00;;;1.77;;
6864;SDS011;3471;49.678;8.388;2023-07-29T07:36:54;2.40;;;2.10;;
6864;SDS011;3471;49.678;8.388;2023-07-29T07:39:20;2.42;;;2.22;;
6864;SDS011;3471;49.678;8.388;2023-07-29T07:41:45;2.10;;;1.90;;
6864;SDS011;3471;49.678;8.388;2023-07-29T07:44:11;2.57;;;2.07;;
6864;SDS011;3471;49.678;8.388;2023-07-29T07:46:40;3.90;;;3.08;;
6864;SDS011;3471;49.678;8.388;2023-07-29T07:49:06;1.93;;;1.77;;
6864;SDS011;3471;49.678;8.388;2023-07-29T07:51:32;3.27;;;2.17;;
6864;SDS011;3471;49.678;8.388;2023-07-29T07:53:57;2.17;;;1.80;;
6864;SDS011;3471;49.678;8.388;2023-07-29T07:56:23;2.97;;;1.80;;
6864;SDS011;3471;49.678;8.388;2023-07-29T07:58:48;2.90;;;2.00;;
6864;SDS011;3471;49.678;8.388;2023-07-29T08:01:14;2.50;;;1.70;;
6864;SDS011;3471;49.678;8.388;2023-07-29T08:03:39;2.00;;;1.40;;
6864;SDS011;3471;49.678;8.388;2023-07-29T08:06:05;2.60;;;1.55;;
6864;SDS011;3471;49.678;8.388;2023-07-29T08:08:30;2.10;;;1.20;;
6864;SDS011;3471;49.678;8.388;2023-07-29T08:10:56;3.55;;;1.23;;
6864;SDS011;3471;49.678;8.388;2023-07-29T08:13:22;2.50;;;1.90;;
6864;SDS011;3471;49.678;8.388;2023-07-29T08:15:50;5.07;;;1.77;;
6864;SDS011;3471;49.678;8.388;2023-07-29T08:18:17;3.38;;;2.67;;
6864;SDS011;3471;49.678;8.388;2023-07-29T08:20:56;3.10;;;1.30;;
6864;SDS011;3471;49.678;8.388;2023-07-29T08:23:32;3.90;;;1.48;;
6864;SDS011;3471;49.678;8.388;2023-07-29T08:25:59;5.05;;;1.92;;
6864;SDS011;3471;49.678;8.388;2023-07-29T08:28:33;1.30;;;0.90;;
6864;SDS011;3471;49.678;8.388;2023-07-29T08:31:00;1.80;;;1.35;;
6864;SDS011;3471;49.678;8.388;2023-07-29T08:33:26;4.20;;;1.33;;
6864;SDS011;3471;49.678;8.388;2023-07-29T08:35:52;3.35;;;1.70;;
6864;SDS011;3471;49.678;8.388;2023-07-29T08:38:18;2.20;;;1.30;;
6864;SDS011;3471;49.678;8.388;2023-07-29T08:43:30;1.63;;;1.13;;
6864;SDS011;3471;49.678;8.388;2023-07-29T08:45:57;1.93;;;1.37;;
6864;SDS011;3471;49.678;8.388;2023-07-29T08:48:28;2.17;;;1.70;;
6864;SDS011;3471;49.678;8.388;2023-07-29T08:51:01;1.40;;;0.98;;
6864;SDS011;3471;49.678;8.388;2023-07-29T08:53:28;2.17;;;1.98;;
6864;SDS011;3471;49.678;8.388;2023-07-29T08:55:54;1.60;;;1.20;;
6864;SDS011;3471;49.678;8.388;2023-07-29T08:58:21;2.10;;;1.70;;
6864;SDS011;3471;49.678;8.388;2023-07-29T09:00:47;2.30;;;2.10;;
6864;SDS011;3471;49.678;8.388;2023-07-29T09:03:14;2.38;;;1.73;;
6864;SDS011;3471;49.678;8.388;2023-07-29T09:05:39;3.50;;;1.40;;
6864;SDS011;3471;49.678;8.388;2023-07-29T09:08:05;1.73;;;1.63;;
6864;SDS011;3471;49.678;8.388;2023-07-29T09:10:34;1.95;;;1.42;;
6864;SDS011;3471;49.678;8.388;2023-07-29T09:13:01;2.50;;;2.10;;
6864;SDS011;3471;49.678;8.388;2023-07-29T09:15:28;2.83;;;1.58;;
6864;SDS011;3471;49.678;8.388;2023-07-29T09:17:58;2.50;;;1.60;;
6864;SDS011;3471;49.678;8.388;2023-07-29T09:20:26;2.15;;;1.60;;
6864;SDS011;3471;49.678;8.388;2023-07-29T09:22:53;1.83;;;1.60;;
6864;SDS011;3471;49.678;8.388;2023-07-29T09:25:25;3.80;;;3.00;;
6864;SDS011;3471;49.678;8.388;2023-07-29T09:27:52;1.88;;;1.67;;
6864;SDS011;3471;49.678;8.388;2023-07-29T09:30:18;2.40;;;1.55;;
6864;SDS011;3471;49.678;8.388;2023-07-29T09:32:43;3.72;;;1.60;;
6864;SDS011;3471;49.678;8.388;2023-07-29T09:35:09;3.25;;;1.60;;
6864;SDS011;3471;49.678;8.388;2023-07-29T09:37:37;3.15;;;1.95;;
6864;SDS011;3471;49.678;8.388;2023-07-29T09:40:04;2.70;;;1.90;;
6864;SDS011;3471;49.678;8.388;2023-07-29T09:42:31;3.17;;;1.60;;
6864;SDS011;3471;49.678;8.388;2023-07-29T09:44:57;2.80;;;1.60;;
6864;SDS011;3471;49.678;8.388;2023-07-29T09:47:23;2.60;;;1.90;;
6864;SDS011;3471;49.678;8.388;2023-07-29T09:49:50;2.88;;;1.95;;
6864;SDS011;3471;49.678;8.388;2023-07-29T09:52:18;1.90;;;1.70;;
6864;SDS011;3471;49.678;8.388;2023-07-29T09:54:45;3.30;;;2.20;;
6864;SDS011;3471;49.678;8.388;2023-07-29T09:57:15;3.00;;;1.77;;
6864;SDS011;3471;49.678;8.388;2023-07-29T09:59:43;1.92;;;1.65;;
6864;SDS011;3471;49.678;8.388;2023-07-29T10:02:18;4.05;;;2.20;;
6864;SDS011;3471;49.678;8.388;2023-07-29T10:04:45;2.90;;;2.40;;
6864;SDS011;3471;49.678;8.388;2023-07-29T10:07:12;2.63;;;2.00;;
6864;SDS011;3471;49.678;8.388;2023-07-29T10:09:38;2.53;;;1.95;;
6864;SDS011;3471;49.678;8.388;2023-07-29T10:12:05;2.50;;;2.00;;
6864;SDS011;3471;49.678;8.388;2023-07-29T10:14:32;1.65;;;1.40;;
6864;SDS011;3471;49.678;8.388;2023-07-29T10:16:57;2.60;;;2.33;;
6864;SDS011;3471;49.678;8.388;2023-07-29T10:19:25;3.00;;;2.58;;
6864;SDS011;3471;49.678;8.388;2023-07-29T10:21:51;4.00;;;2.30;;
6864;SDS011;3471;49.678;8.388;2023-07-29T10:24:19;3.88;;;2.40;;
6864;SDS011;3471;49.678;8.388;2023-07-29T10:26:53;1.73;;;1.52;;
6864;SDS011;3471;49.678;8.388;2023-07-29T10:29:24;4.70;;;2.03;;
6864;SDS011;3471;49.678;8.388;2023-07-29T10:31:53;2.45;;;1.90;;
6864;SDS011;3471;49.678;8.388;2023-07-29T10:34:22;2.00;;;1.80;;
6864;SDS011;3471;49.678;8.388;2023-07-29T10:36:49;2.90;;;2.70;;
6864;SDS011;3471;49.678;8.388;2023-07-29T10:39:15;2.40;;;2.20;;
6864;SDS011;3471;49.678;8.388;2023-07-29T10:45:16;2.63;;;2.05;;
6864;SDS011;3471;49.678;8.388;2023-07-29T10:49:49;2.70;;;2.25;;
6864;SDS011;3471;49.678;8.388;2023-07-29T10:52:17;1.90;;;1.75;;
6864;SDS011;3471;49.678;8.388;2023-07-29T10:55:02;2.88;;;2.25;;
6864;SDS011;3471;49.678;8.388;2023-07-29T10:57:36;2.40;;;1.90;;
6864;SDS011;3471;49.678;8.388;2023-07-29T11:00:04;2.53;;;2.20;;
6864;SDS011;3471;49.678;8.388;2023-07-29T11:02:39;4.60;;;2.60;;
6864;SDS011;3471;49.678;8.388;2023-07-29T11:05:16;2.35;;;1.90;;
6864;SDS011;3471;49.678;8.388;2023-07-29T11:07:46;4.30;;;1.95;;
6864;SDS011;3471;49.678;8.388;2023-07-29T11:10:13;3.30;;;3.05;;
6864;SDS011;3471;49.678;8.388;2023-07-29T11:12:49;2.40;;;1.90;;
6864;SDS011;3471;49.678;8.388;2023-07-29T11:17:50;2.60;;;1.90;;
6864;SDS011;3471;49.678;8.388;2023-07-29T11:20:17;2.40;;;2.00;;
6864;SDS011;3471;49.678;8.388;2023-07-29T11:22:43;2.47;;;1.70;;
6864;SDS011;3471;49.678;8.388;2023-07-29T11:25:13;2.30;;;1.90;;
6864;SDS011;3471;49.678;8.388;2023-07-29T11:27:40;2.50;;;1.60;;
6864;SDS011;3471;49.678;8.388;2023-07-29T11:30:06;2.25;;;2.05;;
6864;SDS011;3471;49.678;8.388;2023-07-29T11:32:34;3.83;;;2.22;;
6864;SDS011;3471;49.678;8.388;2023-07-29T11:35:06;2.58;;;2.10;;
6864;SDS011;3471;49.678;8.388;2023-07-29T11:37:34;2.38;;;2.08;;
6864;SDS011;3471;49.678;8.388;2023-07-29T11:40:01;2.42;;;1.98;;
6864;SDS011;3471;49.678;8.388;2023-07-29T11:42:27;3.35;;;2.30;;
6864;SDS011;3471;49.678;8.388;2023-07-29T11:44:56;8.95;;;2.28;;
6864;SDS011;3471;49.678;8.388;2023-07-29T11:47:22;2.10;;;1.90;;
6864;SDS011;3471;49.678;8.388;2023-07-29T11:49:48;2.50;;;1.90;;
6864;SDS011;3471;49.678;8.388;2023-07-29T11:52:14;3.35;;;1.88;;
6864;SDS011;3471;49.678;8.388;2023-07-29T11:54:43;2.10;;;1.90;;
6864;SDS011;3471;49.678;8.388;2023-07-29T11:57:09;1.90;;;1.40;;
6864;SDS011;3471;49.678;8.388;2023-07-29T11:59:35;2.83;;;2.10;;
6864;SDS011;3471;49.678;8.388;2023-07-29T12:02:02;2.30;;;1.55;;
6864;SDS011;3471;49.678;8.388;2023-07-29T12:04:38;1.70;;;1.50;;
6864;SDS011;3471;49.678;8.388;2023-07-29T12:07:05;2.10;;;1.80;;
6864;SDS011;3471;49.678;8.388;2023-07-29T12:09:31;1.73;;;1.45;;
6864;SDS011;3471;49.678;8.388;2023-07-29T12:12:05;7.10;;;2.10;;
6864;SDS011;3471;49.678;8.388;2023-07-29T12:14:31;2.50;;;2.08;;
6864;SDS011;3471;49.678;8.388;2023-07-29T12:16:59;3.40;;;2.10;;
6864;SDS011;3471;49.678;8.388;2023-07-29T12:19:32;3.47;;;1.58;;
6864;SDS011;3471;49.678;8.388;2023-07-29T12:21:59;2.03;;;1.83;;
6864;SDS011;3471;49.678;8.388;2023-07-29T12:24:32;4.63;;;2.15;;
6864;SDS011;3471;49.678;8.388;2023-07-29T12:27:00;6.60;;;1.77;;
6864;SDS011;3471;49.678;8.388;2023-07-29T12:29:25;2.70;;;2.23;;
6864;SDS011;3471;49.678;8.388;2023-07-29T12:31:58;2.80;;;2.00;;
6864;SDS011;3471;49.678;8.388;2023-07-29T12:34:26;2.00;;;1.50;;
6864;SDS011;3471;49.678;8.388;2023-07-29T12:36:53;2.45;;;1.50;;
6864;SDS011;3471;49.678;8.388;2023-07-29T12:41:46;1.90;;;1.30;;
6864;SDS011;3471;49.678;8.388;2023-07-29T12:44:15;2.55;;;1.60;;
6864;SDS011;3471;49.678;8.388;2023-07-29T12:46:41;2.90;;;1.60;;
6864;SDS011;3471;49.678;8.388;2023-07-29T12:49:06;2.00;;;1.60;;
6864;SDS011;3471;49.678;8.388;2023-07-29T12:51:32;3.20;;;1.63;;
6864;SDS011;3471;49.678;8.388;2023-07-29T12:53:58;4.50;;;2.20;;
6864;SDS011;3471;49.678;8.388;2023-07-29T12:56:24;2.20;;;1.53;;
6864;SDS011;3471;49.678;8.388;2023-07-29T12:58:50;2.90;;;1.67;;
6864;SDS011;3471;49.678;8.388;2023-07-29T13:01:15;1.60;;;1.10;;
6864;SDS011;3471;49.678;8.388;2023-07-29T13:03:44;1.70;;;1.20;;
6864;SDS011;3471;49.678;8.388;2023-07-29T13:06:10;2.00;;;1.50;;
6864;SDS011;3471;49.678;8.388;2023-07-29T13:08:36;6.50;;;2.30;;
6864;SDS011;3471;49.678;8.388;2023-07-29T13:11:01;2.53;;;1.60;;
6864;SDS011;3471;49.678;8.388;2023-07-29T13:13:28;3.00;;;1.80;;
6864;SDS011;3471;49.678;8.388;2023-07-29T13:15:54;1.60;;;1.20;;
6864;SDS011;3471;49.678;8.388;2023-07-29T13:18:19;2.00;;;1.80;;
6864;SDS011;3471;49.678;8.388;2023-07-29T13:20:46;2.00;;;1.80;;
6864;SDS011;3471;49.678;8.388;2023-07-29T13:23:12;2.30;;;1.83;;
6864;SDS011;3471;49.678;8.388;2023-07-29T13:25:37;2.70;;;1.30;;
6864;SDS011;3471;49.678;8.388;2023-07-29T13:28:03;1.90;;;1.50;;
6864;SDS011;3471;49.678;8.388;2023-07-29T13:30:28;5.20;;;1.50;;
6864;SDS011;3471;49.678;8.388;2023-07-29T13:32:54;2.30;;;1.70;;
6864;SDS011;3471;49.678;8.388;2023-07-29T13:35:20;2.63;;;1.60;;
6864;SDS011;3471;49.678;8.388;2023-07-29T13:37:45;3.50;;;1.38;;
6864;SDS011;3471;49.678;8.388;2023-07-29T13:40:11;2.30;;;1.50;;
6864;SDS011;3471;49.678;8.388;2023-07-29T13:42:36;1.75;;;1.40;;
6864;SDS011;3471;49.678;8.388;2023-07-29T13:45:02;1.70;;;1.37;;
6864;SDS011;3471;49.678;8.388;2023-07-29T13:47:28;2.20;;;1.90;;
6864;SDS011;3471;49.678;8.388;2023-07-29T13:49:53;3.53;;;2.17;;
6864;SDS011;3471;49.678;8.388;2023-07-29T13:52:19;4.90;;;1.60;;
6864;SDS011;3471;49.678;8.388;2023-07-29T13:54:44;2.67;;;1.65;;
6864;SDS011;3471;49.678;8.388;2023-07-29T13:57:10;3.73;;;1.93;;
6864;SDS011;3471;49.678;8.388;2023-07-29T13:59:36;4.20;;;1.40;;
6864;SDS011;3471;49.678;8.388;2023-07-29T14:02:04;2.40;;;1.70;;
6864;SDS011;3471;49.678;8.388;2023-07-29T14:04:30;2.58;;;1.65;;
6864;SDS011;3471;49.678;8.388;2023-07-29T14:06:57;6.85;;;1.92;;
6864;SDS011;3471;49.678;8.388;2023-07-29T14:09:22;3.00;;;1.97;;
6864;SDS011;3471;49.678;8.388;2023-07-29T14:11:48;1.80;;;1.30;;
6864;SDS011;3471;49.678;8.388;2023-07-29T14:14:13;3.50;;;1.77;;
6864;SDS011;3471;49.678;8.388;2023-07-29T14:16:39;3.13;;;1.67;;
6864;SDS011;3471;49.678;8.388;2023-07-29T14:19:05;2.28;;;1.48;;
6864;SDS011;3471;49.678;8.388;2023-07-29T14:21:30;2.10;;;1.70;;
6864;SDS011;3471;49.678;8.388;2023-07-29T14:23:56;2.50;;;2.25;;
6864;SDS011;3471;49.678;8.388;2023-07-29T14:26:22;2.23;;;1.50;;
6864;SDS011;3471;49.678;8.388;2023-07-29T14:28:47;1.80;;;1.20;;
6864;SDS011;3471;49.678;8.388;2023-07-29T14:31:14;3.75;;;1.60;;
6864;SDS011;3471;49.678;8.388;2023-07-29T14:33:42;2.00;;;1.67;;
6864;SDS011;3471;49.678;8.388;2023-07-29T14:36:08;3.13;;;2.00;;
6864;SDS011;3471;49.678;8.388;2023-07-29T14:38:34;3.00;;;1.55;;
6864;SDS011;3471;49.678;8.388;2023-07-29T14:41:00;2.80;;;2.03;;
6864;SDS011;3471;49.678;8.388;2023-07-29T14:43:25;7.80;;;2.47;;
6864;SDS011;3471;49.678;8.388;2023-07-29T14:45:51;2.83;;;2.33;;
6864;SDS011;3471;49.678;8.388;2023-07-29T14:48:16;4.53;;;1.90;;
6864;SDS011;3471;49.678;8.388;2023-07-29T14:50:42;2.90;;;2.10;;
6864;SDS011;3471;49.678;8.388;2023-07-29T14:53:08;2.13;;;1.70;;
6864;SDS011;3471;49.678;8.388;2023-07-29T14:55:34;2.80;;;1.60;;
6864;SDS011;3471;49.678;8.388;2023-07-29T14:58:01;2.13;;;1.90;;
6864;SDS011;3471;49.678;8.388;2023-07-29T15:00:27;2.53;;;2.20;;
6864;SDS011;3471;49.678;8.388;2023-07-29T15:02:52;2.10;;;1.73;;
6864;SDS011;3471;49.678;8.388;2023-07-29T15:05:18;3.00;;;2.00;;
6864;SDS011;3471;49.678;8.388;2023-07-29T15:07:44;3.43;;;1.90;;
6864;SDS011;3471;49.678;8.388;2023-07-29T15:10:09;4.20;;;1.80;;
6864;SDS011;3471;49.678;8.388;2023-07-29T15:12:45;5.30;;;2.43;;
6864;SDS011;3471;49.678;8.388;2023-07-29T15:15:11;2.20;;;2.00;;
6864;SDS011;3471;49.678;8.388;2023-07-29T15:17:37;2.60;;;1.90;;
6864;SDS011;3471;49.678;8.388;2023-07-29T15:20:03;2.55;;;2.10;;
6864;SDS011;3471;49.678;8.388;2023-07-29T15:22:29;2.40;;;2.10;;
6864;SDS011;3471;49.678;8.388;2023-07-29T15:24:56;3.20;;;2.42;;
6864;SDS011;3471;49.678;8.388;2023-07-29T15:27:24;4.03;;;2.00;;
6864;SDS011;3471;49.678;8.388;2023-07-29T15:29:50;2.22;;;1.75;;
6864;SDS011;3471;49.678;8.388;2023-07-29T15:32:15;2.47;;;1.70;;
6864;SDS011;3471;49.678;8.388;2023-07-29T15:34:41;2.00;;;1.60;;